createdAt,value
2018-07-21T00:01:30.156Z,97396.61
2018-07-21T00:03:59.218Z,97399.52
2018-07-21T00:06:28.153Z,97405.75
2018-07-21T00:08:56.964Z,97405.91
2018-07-21T00:11:25.869Z,97403.39
2018-07-21T00:13:54.730Z,97403.00
2018-07-21T00:16:23.703Z,97409.95
2018-07-21T00:18:52.763Z,97403.68
2018-07-21T00:21:21.627Z,97400.78
2018-07-21T00:23:50.915Z,97404.11
2018-07-21T00:26:19.690Z,97401.14
2018-07-21T00:28:48.580Z,97405.45
2018-07-21T00:31:17.751Z,97403.88
2018-07-21T00:33:46.835Z,97400.97
2018-07-21T00:36:15.563Z,97406.79
2018-07-21T00:38:44.289Z,97394.66
2018-07-21T00:41:13.290Z,97390.15
2018-07-21T00:43:42.165Z,97383.88
2018-07-21T00:46:11.059Z,97392.67
2018-07-21T00:48:40.135Z,97395.94
2018-07-21T00:51:09.141Z,97396.78
2018-07-21T00:53:37.910Z,97390.55
2018-07-21T00:56:06.890Z,97389.56
2018-07-21T00:58:35.825Z,97386.42
2018-07-21T01:01:04.707Z,97388.06
2018-07-21T01:03:33.632Z,97387.27
2018-07-21T01:06:02.589Z,97390.02
2018-07-21T01:08:31.368Z,97385.48
2018-07-21T01:11:00.252Z,97384.78
2018-07-21T01:13:29.305Z,97384.78
2018-07-21T01:15:58.269Z,97389.43
2018-07-21T01:18:27.021Z,97389.20
2018-07-21T01:20:55.859Z,97382.92
2018-07-21T01:23:24.713Z,97380.20
2018-07-21T01:25:53.499Z,97388.70
2018-07-21T01:28:22.387Z,97381.41
2018-07-21T01:30:51.209Z,97387.47
2018-07-21T01:33:20.083Z,97382.17
2018-07-21T01:35:49.058Z,97388.90
2018-07-21T01:38:17.839Z,97385.41
2018-07-21T01:40:46.706Z,97390.09
2018-07-21T01:43:15.531Z,97389.51
2018-07-21T01:45:45.196Z,97394.98
2018-07-21T01:48:14.072Z,97394.20
2018-07-21T01:50:42.926Z,97394.00
2018-07-21T01:53:11.880Z,97392.42
2018-07-21T01:55:41.036Z,97392.82
2018-07-21T01:58:09.949Z,97394.05
2018-07-21T02:00:38.916Z,97391.30
2018-07-21T02:03:07.806Z,97389.11
2018-07-21T02:05:36.665Z,97388.94
2018-07-21T02:08:05.739Z,97389.48
2018-07-21T02:10:34.618Z,97378.28
2018-07-21T02:13:03.458Z,97376.26
2018-07-21T02:15:32.723Z,97378.25
2018-07-21T02:18:01.800Z,97372.78
2018-07-21T02:20:30.859Z,97371.60
2018-07-21T02:22:59.972Z,97369.45
2018-07-21T02:25:28.821Z,97370.82
2018-07-21T02:27:57.652Z,97368.49
2018-07-21T02:30:26.394Z,97370.47
2018-07-21T02:32:55.600Z,97365.37
2018-07-21T02:35:24.555Z,97367.50
2018-07-21T02:37:53.433Z,97370.06
2018-07-21T02:40:22.279Z,97376.53
2018-07-21T02:42:51.247Z,97376.77
2018-07-21T02:45:20.422Z,97379.50
2018-07-21T02:47:49.283Z,97381.66
2018-07-21T02:50:18.053Z,97379.50
2018-07-21T02:52:46.809Z,97366.75
2018-07-21T02:55:15.697Z,97375.38
2018-07-21T02:57:44.571Z,97371.03
2018-07-21T03:00:13.617Z,97376.36
2018-07-21T03:02:42.607Z,97373.81
2018-07-21T03:05:11.442Z,97368.12
2018-07-21T03:07:40.524Z,97363.60
2018-07-21T03:10:09.617Z,97368.31
2018-07-21T03:12:38.588Z,97365.56
2018-07-21T03:15:07.421Z,97366.55
2018-07-21T03:17:36.248Z,97360.05
2018-07-21T03:20:05.226Z,97363.23
2018-07-21T03:22:34.146Z,97362.82
2018-07-21T03:25:02.989Z,97357.50
2018-07-21T03:27:31.725Z,97351.22
2018-07-21T03:30:00.637Z,97348.64
2018-07-21T03:32:29.555Z,97359.05
2018-07-21T03:34:58.639Z,97360.61
2018-07-21T03:37:27.385Z,97354.92
2018-07-21T03:39:56.389Z,97356.67
2018-07-21T03:42:25.251Z,97358.21
2018-07-21T03:44:54.048Z,97358.58
2018-07-21T03:47:22.864Z,97351.91
2018-07-21T03:49:51.666Z,97352.10
2018-07-21T03:52:20.978Z,97345.99
2018-07-21T03:54:49.930Z,97346.35
2018-07-21T03:57:18.808Z,97341.67
2018-07-21T03:59:47.622Z,97348.73
2018-07-21T04:02:16.642Z,97351.48
2018-07-21T04:04:45.430Z,97345.20
2018-07-21T04:07:14.517Z,97343.61
2018-07-21T04:09:43.553Z,97345.34
2018-07-21T04:12:12.403Z,97352.40
2018-07-21T04:14:41.594Z,97361.42
2018-07-21T04:17:16.558Z,97363.73
2018-07-21T04:19:45.528Z,97365.57
2018-07-21T04:22:15.210Z,97366.28
2018-07-21T04:24:44.214Z,97373.89
2018-07-21T04:27:13.437Z,97368.20
2018-07-21T04:29:42.319Z,97374.48
2018-07-21T04:32:11.231Z,97375.66
2018-07-21T04:34:39.986Z,97375.70
2018-07-21T04:37:09.099Z,97379.03
2018-07-21T04:39:37.982Z,97383.69
2018-07-21T04:42:07.397Z,97392.86
2018-07-21T04:44:43.056Z,97387.81
2018-07-21T04:47:12.138Z,97388.59
2018-07-21T04:49:40.958Z,97392.47
2018-07-21T04:52:09.957Z,97392.52
2018-07-21T04:54:38.781Z,97388.28
2018-07-21T04:57:07.793Z,97388.24
2018-07-21T04:59:36.716Z,97391.38
2018-07-21T05:02:05.796Z,97392.12
2018-07-21T05:04:34.595Z,97392.13
2018-07-21T05:07:03.442Z,97400.70
2018-07-21T05:09:32.430Z,97394.82
2018-07-21T05:12:01.240Z,97388.55
2018-07-21T05:14:30.456Z,97391.81
2018-07-21T05:16:59.383Z,97389.95
2018-07-21T05:19:28.293Z,97387.77
2018-07-21T05:21:57.321Z,97388.98
2018-07-21T05:24:26.264Z,97397.81
2018-07-21T05:26:55.209Z,97398.44
2018-07-21T05:29:24.113Z,97393.73
2018-07-21T05:31:52.920Z,97394.03
2018-07-21T05:34:21.805Z,97390.66
2018-07-21T05:36:50.601Z,97403.25
2018-07-21T05:39:19.439Z,97397.42
2018-07-21T05:41:48.244Z,97401.42
2018-07-21T05:44:17.161Z,97408.20
2018-07-21T05:46:45.994Z,97415.95
2018-07-21T05:49:14.892Z,97418.78
2018-07-21T05:51:43.839Z,97413.33
2018-07-21T05:54:12.710Z,97424.27
2018-07-21T05:56:41.662Z,97422.31
2018-07-21T05:59:10.477Z,97422.55
2018-07-21T06:01:39.396Z,97429.41
2018-07-21T06:04:08.133Z,97436.48
2018-07-21T06:06:36.953Z,97439.93
2018-07-21T06:09:08.134Z,97447.06
2018-07-21T06:11:37.173Z,97447.12
2018-07-21T06:14:06.110Z,97445.14
2018-07-21T06:16:34.972Z,97450.20
2018-07-21T06:19:03.848Z,97451.77
2018-07-21T06:21:32.696Z,97448.98
2018-07-21T06:24:01.466Z,97458.18
2018-07-21T06:26:30.735Z,97465.43
2018-07-21T06:28:59.697Z,97460.14
2018-07-21T06:31:28.521Z,97461.14
2018-07-21T06:33:57.330Z,97467.02
2018-07-21T06:36:26.116Z,97473.28
2018-07-21T06:38:55.067Z,97469.12
2018-07-21T06:41:24.245Z,97471.37
2018-07-21T06:43:53.317Z,97470.59
2018-07-21T06:46:22.364Z,97474.91
2018-07-21T06:48:51.208Z,97477.06
2018-07-21T06:51:20.030Z,97486.63
2018-07-21T06:53:48.857Z,97490.98
2018-07-21T06:56:17.777Z,97495.11
2018-07-21T06:58:46.536Z,97496.28
2018-07-21T07:01:15.439Z,97503.39
2018-07-21T07:03:44.193Z,97511.23
2018-07-21T07:06:13.123Z,97510.22
2018-07-21T07:08:42.071Z,97516.69
2018-07-21T07:11:11.331Z,97527.26
2018-07-21T07:13:40.315Z,97526.92
2018-07-21T07:16:09.246Z,97520.90
2018-07-21T07:18:38.001Z,97521.25
2018-07-21T07:21:06.807Z,97526.73
2018-07-21T07:23:35.680Z,97529.00
2018-07-21T07:26:04.615Z,97527.05
2018-07-21T07:28:33.406Z,97532.73
2018-07-21T07:31:02.342Z,97533.84
2018-07-21T07:33:31.565Z,97541.01
2018-07-21T07:36:00.784Z,97542.25
2018-07-21T07:38:29.853Z,97540.17
2018-07-21T07:40:59.015Z,97544.92
2018-07-21T07:43:28.042Z,97542.89
2018-07-21T07:45:56.818Z,97543.17
2018-07-21T07:48:25.855Z,97539.90
2018-07-21T07:50:54.858Z,97544.13
2018-07-21T07:53:23.749Z,97538.17
2018-07-21T07:55:52.819Z,97544.70
2018-07-21T07:58:21.768Z,97540.78
2018-07-21T08:00:50.796Z,97537.98
2018-07-21T08:03:19.602Z,97541.13
2018-07-21T08:05:48.782Z,97538.64
2018-07-21T08:08:17.748Z,97538.23
2018-07-21T08:10:46.710Z,97537.27
2018-07-21T08:13:16.150Z,97535.23
2018-07-21T08:15:44.946Z,97535.97
2018-07-21T08:18:13.926Z,97537.67
2018-07-21T08:20:42.952Z,97542.61
2018-07-21T08:23:11.677Z,97544.92
2018-07-21T08:25:40.561Z,97543.97
2018-07-21T08:28:09.938Z,97544.30
2018-07-21T08:30:38.971Z,97553.00
2018-07-21T08:33:08.228Z,97552.03
2018-07-21T08:35:37.285Z,97557.38
2018-07-21T08:38:06.606Z,97555.65
2018-07-21T08:40:35.689Z,97557.53
2018-07-21T08:43:04.494Z,97556.33
2018-07-21T08:45:33.390Z,97552.33
2018-07-21T08:48:02.369Z,97550.11
2018-07-21T08:50:31.225Z,97552.83
2018-07-21T08:53:00.663Z,97556.52
2018-07-21T08:55:29.440Z,97553.62
2018-07-21T08:57:58.224Z,97559.67
2018-07-21T09:00:27.301Z,97561.22
2018-07-21T09:02:56.202Z,97560.52
2018-07-21T09:05:25.333Z,97562.61
2018-07-21T09:07:54.246Z,97567.10
2018-07-21T09:10:23.166Z,97563.19
2018-07-21T09:12:52.107Z,97565.81
2018-07-21T09:15:21.485Z,97570.88
2018-07-21T09:17:51.388Z,97566.88
2018-07-21T09:20:20.468Z,97566.67
2018-07-21T09:22:49.664Z,97574.99
2018-07-21T09:25:18.697Z,97574.00
2018-07-21T09:27:47.906Z,97562.98
2018-07-21T09:30:16.829Z,97569.94
2018-07-21T09:32:45.746Z,97567.32
2018-07-21T09:35:14.669Z,97571.88
2018-07-21T09:37:43.416Z,97573.38
2018-07-21T09:40:12.551Z,97581.91
2018-07-21T09:42:41.784Z,97590.85
2018-07-21T09:45:12.665Z,97587.95
2018-07-21T09:47:41.654Z,97594.38
2018-07-21T09:50:11.210Z,97598.47
2018-07-21T09:52:40.741Z,97591.31
2018-07-21T09:55:10.211Z,97599.14
2018-07-21T09:57:39.749Z,97596.40
2018-07-21T10:00:10.453Z,97606.67
2018-07-21T10:02:39.636Z,97601.45
2018-07-21T10:05:08.543Z,97604.94
2018-07-21T10:07:37.351Z,97609.39
2018-07-21T10:10:06.478Z,97601.48
2018-07-21T10:12:35.449Z,97605.10
2018-07-21T10:15:04.512Z,97607.23
2018-07-21T10:17:33.487Z,97615.34
2018-07-21T10:20:02.485Z,97611.48
2018-07-21T10:22:31.420Z,97611.41
2018-07-21T10:25:05.279Z,97620.59
2018-07-21T10:27:39.500Z,97623.87
2018-07-21T10:30:08.815Z,97627.72
2018-07-21T10:32:37.745Z,97627.33
2018-07-21T10:35:06.520Z,97629.01
2018-07-21T10:37:35.575Z,97629.19
2018-07-21T10:40:04.728Z,97633.72
2018-07-21T10:42:33.792Z,97636.13
2018-07-21T10:45:02.649Z,97638.30
2018-07-21T10:47:31.537Z,97649.17
2018-07-21T10:50:00.493Z,97646.86
2018-07-21T10:52:29.423Z,97646.53
2018-07-21T10:54:58.268Z,97646.57
2018-07-21T10:57:27.235Z,97639.85
2018-07-21T10:59:57.502Z,97633.45
2018-07-21T11:02:26.666Z,97637.60
2018-07-21T11:04:55.961Z,97632.27
2018-07-21T11:07:25.142Z,97633.17
2018-07-21T11:09:54.174Z,97634.23
2018-07-21T11:12:23.176Z,97636.48
2018-07-21T11:14:53.239Z,97630.59
2018-07-21T11:17:23.687Z,97623.16
2018-07-21T11:19:52.994Z,97629.02
2018-07-21T11:22:21.967Z,97635.42
2018-07-21T11:24:50.766Z,97643.23
2018-07-21T11:27:19.813Z,97641.59
2018-07-21T11:29:50.326Z,97639.77
2018-07-21T11:32:19.182Z,97635.01
2018-07-21T11:34:48.669Z,97640.08
2018-07-21T11:37:18.376Z,97638.81
2018-07-21T11:39:48.722Z,97634.29
2018-07-21T11:42:17.736Z,97634.93
2018-07-21T11:44:46.810Z,97632.16
2018-07-21T11:47:16.345Z,97632.27
2018-07-21T11:49:46.027Z,97628.47
2018-07-21T11:52:14.969Z,97635.72
2018-07-21T11:54:44.069Z,97636.68
2018-07-21T11:57:13.475Z,97631.30
2018-07-21T11:59:43.405Z,97633.14
2018-07-21T12:02:12.399Z,97634.75
2018-07-21T12:04:41.297Z,97633.19
2018-07-21T12:07:10.642Z,97635.30
2018-07-21T12:09:39.488Z,97630.11
2018-07-21T12:12:08.445Z,97634.84
2018-07-21T12:14:37.644Z,97625.03
2018-07-21T12:17:07.035Z,97636.41
2018-07-21T12:19:36.201Z,97627.86
2018-07-21T12:22:05.513Z,97633.45
2018-07-21T12:24:34.890Z,97632.63
2018-07-21T12:27:03.870Z,97627.47
2018-07-21T12:29:32.886Z,97630.20
2018-07-21T12:32:01.827Z,97624.52
2018-07-21T12:34:30.791Z,97620.70
2018-07-21T12:36:59.588Z,97624.94
2018-07-21T12:39:28.559Z,97626.20
2018-07-21T12:41:57.303Z,97619.28
2018-07-21T12:44:26.268Z,97620.95
2018-07-21T12:46:55.063Z,97622.84
2018-07-21T12:49:24.232Z,97615.81
2018-07-21T12:51:53.535Z,97623.36
2018-07-21T12:54:22.567Z,97617.78
2018-07-21T12:56:51.457Z,97612.30
2018-07-21T12:59:20.739Z,97614.87
2018-07-21T13:01:49.675Z,97610.42
2018-07-21T13:04:19.527Z,97602.92
2018-07-21T13:06:48.573Z,97602.25
2018-07-21T13:09:17.444Z,97602.41
2018-07-21T13:11:46.401Z,97602.98
2018-07-21T13:14:15.497Z,97602.20
2018-07-21T13:16:44.578Z,97604.31
2018-07-21T13:19:13.637Z,97598.30
2018-07-21T13:21:42.435Z,97597.55
2018-07-21T13:24:11.434Z,97596.06
2018-07-21T13:26:40.637Z,97601.54
2018-07-21T13:29:09.668Z,97597.03
2018-07-21T13:31:38.943Z,97592.33
2018-07-21T13:34:08.078Z,97589.17
2018-07-21T13:36:37.112Z,97588.22
2018-07-21T13:39:09.019Z,97588.22
2018-07-21T13:41:37.836Z,97578.83
2018-07-21T13:44:06.961Z,97583.26
2018-07-21T13:46:35.997Z,97585.71
2018-07-21T13:49:04.975Z,97582.66
2018-07-21T13:51:33.945Z,97577.37
2018-07-21T13:54:02.873Z,97577.72
2018-07-21T13:56:32.299Z,97583.11
2018-07-21T13:59:01.733Z,97582.30
2018-07-21T14:01:30.670Z,97574.00
2018-07-21T14:03:59.557Z,97581.92
2018-07-21T14:06:28.788Z,97576.48
2018-07-21T14:08:57.898Z,97578.41
2018-07-21T14:11:27.108Z,97577.84
2018-07-21T14:13:56.207Z,97578.40
2018-07-21T14:16:25.291Z,97574.98
2018-07-21T14:18:54.218Z,97578.70
2018-07-21T14:21:22.966Z,97583.98
2018-07-21T14:23:51.973Z,97577.98
2018-07-21T14:26:20.765Z,97581.39
2018-07-21T14:28:49.713Z,97572.59
2018-07-21T14:31:18.694Z,97579.97
2018-07-21T14:33:47.529Z,97576.60
2018-07-21T14:36:16.429Z,97578.48
2018-07-21T14:38:45.146Z,97576.15
2018-07-21T14:41:14.165Z,97573.55
2018-07-21T14:43:43.122Z,97568.95
2018-07-21T14:46:12.068Z,97568.63
2018-07-21T14:48:41.110Z,97576.52
2018-07-21T14:51:10.352Z,97568.12
2018-07-21T14:53:39.309Z,97578.22
2018-07-21T14:56:08.622Z,97582.97
2018-07-21T14:58:37.549Z,97574.95
2018-07-21T15:01:06.596Z,97581.41
2018-07-21T15:03:35.690Z,97578.25
2018-07-21T15:06:04.970Z,97574.90
2018-07-21T15:08:33.776Z,97576.09
2018-07-21T15:11:02.897Z,97575.31
2018-07-21T15:13:31.716Z,97575.11
2018-07-21T15:16:00.647Z,97573.91
2018-07-21T15:18:29.543Z,97570.44
2018-07-21T15:20:58.394Z,97561.72
2018-07-21T15:23:27.154Z,97565.39
2018-07-21T15:25:55.949Z,97562.81
2018-07-21T15:28:24.918Z,97569.22
2018-07-21T15:30:53.795Z,97565.03
2018-07-21T15:33:22.973Z,97563.59
2018-07-21T15:35:51.867Z,97562.31
2018-07-21T15:38:20.919Z,97563.23
2018-07-21T15:40:50.070Z,97562.03
2018-07-21T15:43:19.235Z,97555.94
2018-07-21T15:45:49.324Z,97559.53
2018-07-21T15:48:18.391Z,97563.92
2018-07-21T15:50:47.711Z,97556.67
2018-07-21T15:53:16.947Z,97552.27
2018-07-21T15:55:45.818Z,97554.63
2018-07-21T15:58:14.685Z,97548.88
2018-07-21T16:00:43.513Z,97547.70
2018-07-21T16:03:12.478Z,97552.22
2018-07-21T16:05:41.373Z,97544.42
2018-07-21T16:08:10.110Z,97543.88
2018-07-21T16:10:39.106Z,97542.61
2018-07-21T16:13:07.968Z,97544.12
2018-07-21T16:15:36.798Z,97540.87
2018-07-21T16:18:05.803Z,97537.17
2018-07-21T16:20:34.535Z,97536.78
2018-07-21T16:23:04.236Z,97534.86
2018-07-21T16:25:33.256Z,97542.66
2018-07-21T16:28:02.320Z,97540.89
2018-07-21T16:30:31.211Z,97544.91
2018-07-21T16:32:59.958Z,97543.05
2018-07-21T16:35:28.757Z,97546.58
2018-07-21T16:37:57.723Z,97536.77
2018-07-21T16:40:26.550Z,97537.05
2018-07-21T16:42:55.464Z,97529.75
2018-07-21T16:45:24.213Z,97539.56
2018-07-21T16:47:53.104Z,97534.50
2018-07-21T16:50:21.949Z,97533.73
2018-07-21T16:52:51.072Z,97526.86
2018-07-21T16:55:20.513Z,97526.63
2018-07-21T16:57:49.722Z,97527.39
2018-07-21T17:00:19.030Z,97525.56
2018-07-21T17:02:48.025Z,97528.95
2018-07-21T17:05:16.871Z,97529.99
2018-07-21T17:07:46.053Z,97533.17
2018-07-21T17:10:15.113Z,97533.20
2018-07-21T17:12:43.981Z,97530.41
2018-07-21T17:15:13.275Z,97534.11
2018-07-21T17:17:42.281Z,97528.42
2018-07-21T17:20:11.122Z,97530.69
2018-07-21T17:22:40.249Z,97538.91
2018-07-21T17:25:09.023Z,97541.45
2018-07-21T17:27:38.273Z,97545.45
2018-07-21T17:30:07.240Z,97541.57
2018-07-21T17:32:36.342Z,97541.94
2018-07-21T17:35:05.335Z,97539.39
2018-07-21T17:37:34.154Z,97544.38
2018-07-21T17:40:03.137Z,97544.58
2018-07-21T17:42:32.093Z,97545.83
2018-07-21T17:45:00.899Z,97554.26
2018-07-21T17:47:30.015Z,97557.52
2018-07-21T17:49:59.095Z,97556.44
2018-07-21T17:52:28.287Z,97558.50
2018-07-21T17:54:57.764Z,97561.80
2018-07-21T17:57:26.685Z,97563.44
2018-07-21T17:59:55.725Z,97575.23
2018-07-21T18:02:24.818Z,97567.60
2018-07-21T18:04:53.865Z,97565.30
2018-07-21T18:07:22.808Z,97566.41
2018-07-21T18:09:51.786Z,97567.16
2018-07-21T18:12:20.584Z,97573.08
2018-07-21T18:14:49.590Z,97573.38
2018-07-21T18:17:18.594Z,97568.30
2018-07-21T18:19:47.576Z,97564.16
2018-07-21T18:22:16.667Z,97559.48
2018-07-21T18:24:45.798Z,97568.78
2018-07-21T18:27:14.827Z,97567.06
2018-07-21T18:29:43.634Z,97571.27
2018-07-21T18:32:12.523Z,97569.15
2018-07-21T18:34:41.613Z,97570.72
2018-07-21T18:37:10.760Z,97571.51
2018-07-21T18:39:39.891Z,97573.88
2018-07-21T18:42:08.700Z,97572.64
2018-07-21T18:44:37.638Z,97571.00
2018-07-21T18:47:05.939Z,97567.20
2018-07-21T18:49:35.002Z,97566.86
2018-07-21T18:52:04.055Z,97562.86
2018-07-21T18:54:33.034Z,97562.31
2018-07-21T18:57:01.849Z,97567.65
2018-07-21T18:59:30.733Z,97569.50
2018-07-21T19:01:59.498Z,97572.66
2018-07-21T19:04:28.484Z,97569.44
2018-07-21T19:06:57.407Z,97570.81
2018-07-21T19:09:26.372Z,97568.07
2018-07-21T19:12:00.293Z,97570.88
2018-07-21T19:14:29.410Z,97571.15
2018-07-21T19:16:58.295Z,97570.36
2018-07-21T19:19:31.253Z,97570.94
2018-07-21T19:22:00.476Z,97571.22
2018-07-21T19:24:29.464Z,97577.64
2018-07-21T19:27:03.437Z,97576.31
2018-07-21T19:29:32.568Z,97576.32
2018-07-21T19:32:06.671Z,97581.02
2018-07-21T19:34:35.697Z,97585.25
2018-07-21T19:37:08.676Z,97584.80
2018-07-21T19:39:37.469Z,97586.88
2018-07-21T19:42:06.505Z,97586.03
2018-07-21T19:44:35.350Z,97595.95
2018-07-21T19:47:04.246Z,97590.47
2018-07-21T19:49:33.246Z,97594.05
2018-07-21T19:52:02.502Z,97597.11
2018-07-21T19:54:31.402Z,97595.83
2018-07-21T19:57:00.343Z,97596.23
2018-07-21T19:59:29.099Z,97600.09
2018-07-21T20:01:57.916Z,97602.41
2018-07-21T20:04:26.657Z,97604.81
2018-07-21T20:06:55.440Z,97602.90
2018-07-21T20:09:24.413Z,97609.58
2018-07-21T20:11:53.317Z,97612.31
2018-07-21T20:14:22.726Z,97614.42
2018-07-21T20:16:51.550Z,97613.61
2018-07-21T20:19:20.567Z,97617.70
2018-07-21T20:21:49.447Z,97616.70
2018-07-21T20:24:18.503Z,97624.56
2018-07-21T20:26:47.407Z,97623.47
2018-07-21T20:29:16.311Z,97622.84
2018-07-21T20:31:45.710Z,97630.06
2018-07-21T20:34:14.730Z,97628.56
2018-07-21T20:36:43.592Z,97626.62
2018-07-21T20:39:12.378Z,97634.72
2018-07-21T20:41:41.347Z,97641.56
2018-07-21T20:44:10.206Z,97642.63
2018-07-21T20:46:39.182Z,97641.47
2018-07-21T20:49:08.294Z,97643.38
2018-07-21T20:51:37.709Z,97649.05
2018-07-21T20:54:06.524Z,97649.27
2018-07-21T20:56:35.467Z,97645.95
2018-07-21T20:59:04.439Z,97654.32
2018-07-21T21:01:33.563Z,97648.11
2018-07-21T21:04:02.600Z,97647.31
2018-07-21T21:06:31.395Z,97648.64
2018-07-21T21:09:00.313Z,97649.38
2018-07-21T21:11:29.289Z,97647.85
2018-07-21T21:13:58.299Z,97641.47
2018-07-21T21:16:27.174Z,97642.17
2018-07-21T21:18:56.061Z,97636.16
2018-07-21T21:21:25.050Z,97641.63
2018-07-21T21:23:54.031Z,97637.23
2018-07-21T21:26:22.856Z,97639.72
2018-07-21T21:28:51.536Z,97638.36
2018-07-21T21:31:20.588Z,97645.42
2018-07-21T21:33:49.608Z,97640.29
2018-07-21T21:36:18.570Z,97647.47
2018-07-21T21:38:47.551Z,97642.17
2018-07-21T21:41:16.548Z,97638.80
2018-07-21T21:43:45.437Z,97639.95
2018-07-21T21:46:14.607Z,97644.89
2018-07-21T21:48:43.522Z,97643.24
2018-07-21T21:51:12.486Z,97639.66
2018-07-21T21:53:41.375Z,97646.50
2018-07-21T21:56:10.389Z,97643.05
2018-07-21T21:58:39.477Z,97650.30
2018-07-21T22:01:12.948Z,97643.19
2018-07-21T22:03:42.057Z,97641.39
2018-07-21T22:06:11.006Z,97650.08
2018-07-21T22:08:40.417Z,97651.09
2018-07-21T22:11:09.229Z,97644.49
2018-07-21T22:13:38.289Z,97645.35
2018-07-21T22:16:07.443Z,97648.72
2018-07-21T22:18:36.459Z,97647.14
2018-07-21T22:21:05.432Z,97642.10
2018-07-21T22:23:34.453Z,97648.42
2018-07-21T22:26:03.262Z,97648.78
2018-07-21T22:28:31.993Z,97647.23
2018-07-21T22:31:00.881Z,97656.80
2018-07-21T22:33:29.755Z,97653.19
2018-07-21T22:35:58.634Z,97656.19
2018-07-21T22:38:27.442Z,97660.08
2018-07-21T22:40:56.283Z,97654.97
2018-07-21T22:43:25.126Z,97654.97
2018-07-21T22:45:53.818Z,97660.89
2018-07-21T22:48:22.838Z,97655.48
2018-07-21T22:50:51.842Z,97656.98
2018-07-21T22:53:20.750Z,97657.65
2018-07-21T22:55:49.569Z,97650.30
2018-07-21T22:58:18.441Z,97653.24
2018-07-21T23:00:47.389Z,97652.19
2018-07-21T23:03:16.217Z,97653.09
2018-07-21T23:05:44.978Z,97650.42
2018-07-21T23:08:13.809Z,97656.49
2018-07-21T23:10:42.642Z,97646.66
2018-07-21T23:13:11.611Z,97654.70
2018-07-21T23:15:40.399Z,97653.67
2018-07-21T23:18:09.423Z,97652.39
2018-07-21T23:20:39.177Z,97643.74
2018-07-21T23:23:08.057Z,97644.05
2018-07-21T23:25:36.963Z,97647.84
2018-07-21T23:28:05.878Z,97647.84
2018-07-21T23:30:34.849Z,97650.60
2018-07-21T23:33:04.033Z,97648.94
2018-07-21T23:35:32.992Z,97649.88
2018-07-21T23:38:01.988Z,97649.14
2018-07-21T23:40:31.065Z,97645.27
2018-07-21T23:42:59.883Z,97646.78
2018-07-21T23:45:28.683Z,97648.45
2018-07-21T23:47:57.794Z,97642.73
2018-07-21T23:50:26.625Z,97647.93
2018-07-21T23:52:55.742Z,97643.68
2018-07-21T23:55:24.580Z,97647.35
2018-07-21T23:57:53.526Z,97648.08
